createdAt,value
2019-05-23T00:01:23.567Z,10.55
2019-05-23T00:03:53.601Z,10.55
2019-05-23T00:06:36.065Z,10.54
2019-05-23T00:09:06.746Z,10.52
2019-05-23T00:11:44.705Z,10.49
2019-05-23T00:14:24.025Z,10.46
2019-05-23T00:16:54.143Z,10.44
2019-05-23T00:19:23.802Z,10.42
2019-05-23T00:21:53.016Z,10.41
2019-05-23T00:24:22.211Z,10.42
2019-05-23T00:26:51.033Z,10.38
2019-05-23T00:29:19.765Z,10.32
2019-05-23T00:31:56.098Z,10.27
2019-05-23T00:34:25.706Z,10.23
2019-05-23T00:36:55.961Z,10.17
2019-05-23T00:39:24.527Z,10.17
2019-05-23T00:41:53.734Z,10.17
2019-05-23T00:44:22.957Z,10.17
2019-05-23T00:46:52.681Z,10.20
2019-05-23T00:49:22.080Z,10.21
2019-05-23T00:51:50.599Z,10.21
2019-05-23T00:54:20.903Z,10.18
2019-05-23T00:56:50.159Z,10.16
2019-05-23T00:59:26.662Z,10.14
2019-05-23T01:01:49.116Z,10.09
2019-05-23T01:04:17.976Z,10.05
2019-05-23T01:06:47.740Z,10.00
2019-05-23T01:09:16.837Z,9.95
2019-05-23T01:11:46.349Z,9.94
2019-05-23T01:14:15.055Z,9.89
2019-05-23T01:16:43.456Z,9.87
2019-05-23T01:19:12.114Z,9.83
2019-05-23T01:21:42.226Z,9.80
2019-05-23T01:24:12.280Z,9.82
2019-05-23T01:26:41.809Z,9.83
2019-05-23T01:29:11.145Z,9.83
2019-05-23T01:31:41.205Z,9.82
2019-05-23T01:34:11.555Z,9.78
2019-05-23T01:36:40.126Z,9.71
2019-05-23T01:39:10.276Z,9.68
2019-05-23T01:41:39.427Z,9.68
2019-05-23T01:44:08.411Z,9.63
2019-05-23T01:46:36.795Z,9.58
2019-05-23T01:49:06.733Z,9.53
2019-05-23T01:51:36.752Z,9.47
2019-05-23T01:54:05.850Z,9.41
2019-05-23T01:56:34.584Z,9.37
2019-05-23T01:59:03.812Z,9.31
2019-05-23T02:01:32.481Z,9.29
2019-05-23T02:04:02.442Z,9.28
2019-05-23T02:06:31.065Z,9.25
2019-05-23T02:08:59.525Z,9.22
2019-05-23T02:11:28.953Z,9.20
2019-05-23T02:13:57.411Z,9.18
2019-05-23T02:16:27.340Z,9.13
2019-05-23T02:18:55.737Z,9.11
2019-05-23T02:21:26.277Z,9.06
2019-05-23T02:23:54.918Z,9.04
2019-05-23T02:26:24.148Z,9.02
2019-05-23T02:28:53.049Z,8.99
2019-05-23T02:31:21.529Z,8.98
2019-05-23T02:33:50.175Z,8.97
2019-05-23T02:36:18.561Z,8.94
2019-05-23T02:38:54.286Z,8.91
2019-05-23T02:41:27.367Z,8.87
2019-05-23T02:43:58.288Z,8.87
2019-05-23T02:46:31.016Z,8.82
2019-05-23T02:49:01.182Z,8.79
2019-05-23T02:51:37.043Z,8.75
2019-05-23T02:54:10.126Z,8.71
2019-05-23T02:56:39.935Z,8.68
2019-05-23T02:59:18.881Z,8.66
2019-05-23T03:02:20.689Z,8.63
2019-05-23T03:04:49.916Z,8.59
2019-05-23T03:07:21.832Z,8.59
2019-05-23T03:09:51.695Z,8.54
2019-05-23T03:12:24.997Z,8.48
2019-05-23T03:14:51.561Z,8.49
2019-05-23T03:17:24.502Z,8.48
2019-05-23T03:19:57.740Z,8.50
2019-05-23T03:22:31.724Z,8.49
2019-05-23T03:25:04.410Z,8.45
2019-05-23T03:27:35.840Z,8.42
2019-05-23T03:30:08.210Z,8.41
2019-05-23T03:32:44.965Z,8.41
2019-05-23T03:35:16.027Z,8.39
2019-05-23T03:37:45.899Z,8.35
2019-05-23T03:40:16.159Z,8.31
2019-05-23T03:42:45.997Z,8.30
2019-05-23T03:45:16.297Z,8.27
2019-05-23T03:47:46.017Z,8.24
2019-05-23T03:50:14.457Z,8.23
2019-05-23T03:52:43.941Z,8.19
2019-05-23T03:55:13.180Z,8.16
2019-05-23T03:57:42.233Z,8.19
2019-05-23T04:00:14.306Z,8.25
2019-05-23T04:02:44.322Z,8.25
2019-05-23T04:05:13.762Z,8.25
2019-05-23T04:07:42.595Z,8.25
2019-05-23T04:10:12.292Z,8.24
2019-05-23T04:12:40.851Z,8.21
2019-05-23T04:15:10.876Z,8.21
2019-05-23T04:17:39.267Z,8.22
2019-05-23T04:20:08.873Z,8.17
2019-05-23T04:22:37.325Z,8.14
2019-05-23T04:25:07.527Z,8.12
2019-05-23T04:27:36.820Z,8.09
2019-05-23T04:30:06.918Z,8.09
2019-05-23T04:32:35.488Z,8.08
2019-05-23T04:35:05.989Z,8.04
2019-05-23T04:37:35.044Z,8.00
2019-05-23T04:40:05.543Z,7.98
2019-05-23T04:42:34.021Z,8.00
2019-05-23T04:45:03.079Z,8.00
2019-05-23T04:47:31.752Z,8.08
2019-05-23T04:50:00.564Z,8.15
2019-05-23T04:52:29.105Z,8.20
2019-05-23T04:54:58.535Z,8.24
2019-05-23T04:57:27.479Z,8.27
2019-05-23T04:59:56.230Z,8.30
2019-05-23T05:02:27.169Z,8.31
2019-05-23T05:04:56.294Z,8.33
2019-05-23T05:07:24.862Z,8.33
2019-05-23T05:09:53.240Z,8.35
2019-05-23T05:12:22.308Z,8.39
2019-05-23T05:14:51.271Z,8.44
2019-05-23T05:17:19.725Z,8.49
2019-05-23T05:19:48.112Z,8.55
2019-05-23T05:22:16.955Z,8.58
2019-05-23T05:24:45.415Z,8.61
2019-05-23T05:27:14.374Z,8.63
2019-05-23T05:29:42.756Z,8.66
2019-05-23T05:32:11.180Z,8.68
2019-05-23T05:34:39.562Z,8.67
2019-05-23T05:37:08.101Z,8.66
2019-05-23T05:39:37.275Z,8.63
2019-05-23T05:42:07.330Z,8.60
2019-05-23T05:44:36.153Z,8.56
2019-05-23T05:47:05.191Z,8.51
2019-05-23T05:49:33.745Z,8.51
2019-05-23T05:52:02.211Z,8.47
2019-05-23T05:54:30.586Z,8.45
2019-05-23T05:57:00.568Z,8.42
2019-05-23T05:59:29.728Z,8.48
2019-05-23T06:01:58.924Z,8.56
2019-05-23T06:04:27.458Z,8.77
2019-05-23T06:06:57.500Z,9.06
2019-05-23T06:09:27.572Z,9.41
2019-05-23T06:11:56.404Z,9.68
2019-05-23T06:14:24.795Z,9.91
2019-05-23T06:16:55.164Z,9.95
2019-05-23T06:19:24.002Z,10.23
2019-05-23T06:21:52.459Z,10.36
2019-05-23T06:24:39.461Z,10.50
2019-05-23T06:26:51.558Z,10.67
2019-05-23T06:29:20.331Z,10.91
2019-05-23T06:31:48.868Z,10.96
2019-05-23T06:34:17.389Z,11.08
2019-05-23T06:36:46.948Z,11.21
2019-05-23T06:39:15.632Z,11.29
2019-05-23T06:41:44.111Z,11.11
2019-05-23T06:44:13.119Z,11.47
2019-05-23T06:46:41.585Z,11.66
2019-05-23T06:49:10.061Z,11.71
2019-05-23T06:51:38.520Z,12.05
2019-05-23T06:54:06.981Z,12.20
2019-05-23T06:56:35.559Z,12.36
2019-05-23T06:59:04.626Z,12.49
2019-05-23T07:01:33.195Z,12.58
2019-05-23T07:04:01.723Z,12.64
2019-05-23T07:06:30.106Z,12.78
2019-05-23T07:08:58.954Z,12.92
2019-05-23T07:11:28.154Z,13.08
2019-05-23T07:13:56.883Z,13.19
2019-05-23T07:16:25.340Z,13.38
2019-05-23T07:18:53.809Z,13.55
2019-05-23T07:21:22.547Z,13.65
2019-05-23T07:23:50.951Z,13.80
2019-05-23T07:26:19.661Z,13.75
2019-05-23T07:28:48.556Z,13.67
2019-05-23T07:31:17.419Z,13.75
2019-05-23T07:34:00.321Z,13.75
2019-05-23T07:36:16.249Z,14.02
2019-05-23T07:38:44.789Z,14.10
2019-05-23T07:41:13.866Z,14.24
2019-05-23T07:43:42.252Z,14.42
2019-05-23T07:46:10.731Z,14.39
2019-05-23T07:48:39.444Z,14.46
2019-05-23T07:51:07.833Z,14.49
2019-05-23T07:53:50.147Z,14.53
2019-05-23T07:56:21.402Z,14.71
2019-05-23T07:58:49.842Z,14.76
2019-05-23T08:01:19.894Z,14.73
2019-05-23T08:03:51.195Z,14.70
2019-05-23T08:06:20.021Z,14.67
2019-05-23T08:08:50.043Z,14.70
2019-05-23T08:11:18.805Z,14.39
2019-05-23T08:13:48.735Z,14.38
2019-05-23T08:16:17.464Z,14.38
2019-05-23T08:18:45.994Z,14.40
2019-05-23T08:21:14.515Z,14.31
2019-05-23T08:23:42.934Z,14.27
2019-05-23T08:26:12.923Z,14.32
2019-05-23T08:29:00.964Z,14.33
2019-05-23T08:31:12.322Z,14.40
2019-05-23T08:33:40.864Z,14.37
2019-05-23T08:36:10.009Z,14.43
2019-05-23T08:38:38.915Z,14.47
2019-05-23T08:41:07.919Z,14.52
2019-05-23T08:43:36.326Z,14.50
2019-05-23T08:46:05.456Z,14.57
2019-05-23T08:48:34.026Z,14.49
2019-05-23T08:51:02.740Z,14.45
2019-05-23T08:53:31.150Z,14.41
2019-05-23T08:55:59.750Z,14.60
2019-05-23T08:58:28.190Z,14.59
2019-05-23T09:00:56.715Z,14.60
2019-05-23T09:03:25.644Z,14.67
2019-05-23T09:05:54.520Z,14.85
2019-05-23T09:08:24.388Z,14.81
2019-05-23T09:10:52.794Z,14.83
2019-05-23T09:13:21.525Z,14.87
2019-05-23T09:15:52.893Z,15.01
2019-05-23T09:18:20.136Z,15.01
2019-05-23T09:20:48.546Z,15.08
2019-05-23T09:23:16.929Z,15.14
2019-05-23T09:25:45.383Z,15.23
2019-05-23T09:28:14.139Z,15.22
2019-05-23T09:30:42.732Z,15.19
2019-05-23T09:33:11.112Z,15.17
2019-05-23T09:35:40.075Z,15.12
2019-05-23T09:38:08.657Z,15.16
2019-05-23T09:40:37.045Z,15.23
2019-05-23T09:43:06.002Z,15.23
2019-05-23T09:45:34.520Z,15.15
2019-05-23T09:48:03.364Z,15.17
2019-05-23T09:50:32.430Z,15.27
2019-05-23T09:53:01.160Z,15.29
2019-05-23T09:55:30.289Z,15.34
2019-05-23T09:57:58.702Z,15.39
2019-05-23T10:00:27.115Z,15.48
2019-05-23T10:02:55.691Z,15.55
2019-05-23T10:05:40.693Z,15.55
2019-05-23T10:07:54.223Z,15.66
2019-05-23T10:10:22.876Z,15.64
2019-05-23T10:12:51.409Z,15.80
2019-05-23T10:15:40.127Z,15.83
2019-05-23T10:18:19.082Z,15.91
2019-05-23T10:20:47.527Z,15.97
2019-05-23T10:23:15.980Z,16.11
2019-05-23T10:25:45.020Z,16.21
2019-05-23T10:28:14.307Z,16.24
2019-05-23T10:30:42.721Z,16.25
2019-05-23T10:33:12.961Z,16.20
2019-05-23T10:35:56.918Z,16.13
2019-05-23T10:38:11.567Z,16.07
2019-05-23T10:40:40.047Z,16.11
2019-05-23T10:43:09.195Z,16.22
2019-05-23T10:45:37.677Z,16.22
2019-05-23T10:48:06.905Z,16.17
2019-05-23T10:50:44.091Z,16.11
2019-05-23T10:53:05.529Z,16.06
2019-05-23T10:55:33.978Z,16.12
2019-05-23T10:58:03.378Z,16.21
2019-05-23T11:00:32.514Z,16.38
2019-05-23T11:03:01.247Z,16.48
2019-05-23T11:05:29.850Z,16.55
2019-05-23T11:07:59.329Z,16.60
2019-05-23T11:10:28.683Z,16.57
2019-05-23T11:12:57.183Z,16.54
2019-05-23T11:15:25.709Z,16.53
2019-05-23T11:17:54.372Z,16.54
2019-05-23T11:20:22.999Z,16.59
2019-05-23T11:22:51.525Z,16.69
2019-05-23T11:25:19.974Z,16.82
2019-05-23T11:27:48.463Z,16.89
2019-05-23T11:30:20.576Z,16.84
2019-05-23T11:32:48.988Z,16.92
2019-05-23T11:35:17.471Z,16.93
2019-05-23T11:37:45.854Z,16.98
2019-05-23T11:40:14.311Z,17.10
2019-05-23T11:42:42.757Z,17.24
2019-05-23T11:45:13.047Z,17.45
2019-05-23T11:47:41.452Z,17.45
2019-05-23T11:50:10.288Z,17.33
2019-05-23T11:52:38.775Z,17.44
2019-05-23T11:55:08.745Z,17.44
2019-05-23T11:57:38.482Z,17.46
2019-05-23T12:00:10.622Z,17.37
2019-05-23T12:02:43.936Z,17.48
2019-05-23T12:05:20.502Z,17.48
2019-05-23T12:07:48.967Z,17.50
2019-05-23T12:10:18.506Z,17.51
2019-05-23T12:12:47.015Z,17.58
2019-05-23T12:15:20.748Z,17.68
2019-05-23T12:17:49.153Z,17.81
2019-05-23T12:20:18.259Z,17.81
2019-05-23T12:22:47.195Z,17.79
2019-05-23T12:25:22.377Z,17.78
2019-05-23T12:27:46.145Z,17.93
2019-05-23T12:30:16.632Z,17.93
2019-05-23T12:32:45.013Z,18.03
2019-05-23T12:35:13.529Z,18.04
2019-05-23T12:37:41.994Z,18.04
2019-05-23T12:40:12.516Z,18.04
2019-05-23T12:42:40.903Z,18.02
2019-05-23T12:45:11.894Z,18.10
2019-05-23T12:47:44.620Z,18.04
2019-05-23T12:50:20.498Z,18.31
2019-05-23T12:52:48.960Z,18.37
2019-05-23T12:55:17.590Z,18.38
2019-05-23T12:57:46.108Z,18.45
2019-05-23T13:00:25.667Z,18.57
2019-05-23T13:02:54.988Z,18.70
2019-05-23T13:05:23.709Z,18.78
2019-05-23T13:07:52.472Z,18.82
2019-05-23T13:10:24.752Z,18.78
2019-05-23T13:12:51.410Z,18.73
2019-05-23T13:15:21.097Z,18.60
2019-05-23T13:17:49.484Z,18.55
2019-05-23T13:20:18.303Z,18.43
2019-05-23T13:22:47.032Z,18.19
2019-05-23T13:25:16.074Z,18.19
2019-05-23T13:27:44.459Z,18.12
2019-05-23T13:30:13.312Z,18.01
2019-05-23T13:32:41.943Z,18.00
2019-05-23T13:35:10.386Z,17.98
2019-05-23T13:37:52.498Z,17.99
2019-05-23T13:40:10.229Z,17.90
2019-05-23T13:42:38.767Z,17.90
2019-05-23T13:45:07.915Z,17.96
2019-05-23T13:47:36.471Z,18.13
2019-05-23T13:50:06.676Z,18.13
2019-05-23T13:52:35.549Z,18.24
2019-05-23T13:55:08.110Z,18.37
2019-05-23T13:57:37.201Z,18.45
2019-05-23T14:00:07.718Z,18.42
2019-05-23T14:02:36.398Z,18.42
2019-05-23T14:05:07.492Z,18.42
2019-05-23T14:07:36.594Z,18.51
2019-05-23T14:10:09.879Z,18.65
2019-05-23T14:12:38.600Z,18.75
2019-05-23T14:15:09.215Z,18.71
2019-05-23T14:17:39.335Z,18.82
2019-05-23T14:20:08.143Z,18.83
2019-05-23T14:22:38.174Z,18.87
2019-05-23T14:25:07.103Z,18.88
2019-05-23T14:27:42.730Z,18.79
2019-05-23T14:30:29.126Z,18.48
2019-05-23T14:32:59.785Z,18.48
2019-05-23T14:35:29.828Z,18.46
2019-05-23T14:37:59.911Z,18.23
2019-05-23T14:40:28.654Z,18.23
2019-05-23T14:42:58.744Z,18.25
2019-05-23T14:45:31.519Z,18.22
2019-05-23T14:48:01.917Z,18.31
2019-05-23T14:50:38.419Z,18.32
2019-05-23T14:53:08.554Z,18.46
2019-05-23T14:55:36.937Z,18.52
2019-05-23T14:58:06.320Z,18.52
2019-05-23T15:00:35.346Z,18.53
2019-05-23T15:03:04.808Z,18.52
2019-05-23T15:05:33.638Z,18.54
2019-05-23T15:08:02.059Z,18.54
2019-05-23T15:10:30.612Z,18.58
2019-05-23T15:12:59.612Z,18.57
2019-05-23T15:15:28.110Z,18.54
2019-05-23T15:17:56.467Z,18.54
2019-05-23T15:20:25.020Z,18.58
2019-05-23T15:22:53.440Z,18.53
2019-05-23T15:25:21.905Z,18.48
2019-05-23T15:27:50.290Z,18.44
2019-05-23T15:30:19.050Z,18.39
2019-05-23T15:32:47.500Z,18.39
2019-05-23T15:35:16.228Z,18.41
2019-05-23T15:37:44.699Z,18.39
2019-05-23T15:40:13.211Z,18.38
2019-05-23T15:42:41.595Z,18.38
2019-05-23T15:45:10.274Z,18.37
2019-05-23T15:47:38.722Z,18.38
2019-05-23T15:50:12.230Z,18.40
2019-05-23T15:52:48.599Z,18.39
2019-05-23T15:55:21.822Z,18.45
2019-05-23T15:57:51.931Z,18.46
2019-05-23T16:00:24.990Z,18.47
2019-05-23T16:03:00.943Z,18.48
2019-05-23T16:05:29.334Z,18.50
2019-05-23T16:07:57.785Z,18.57
2019-05-23T16:10:27.122Z,18.62
2019-05-23T16:12:55.536Z,18.58
2019-05-23T16:15:24.238Z,18.57
2019-05-23T16:17:52.684Z,18.63
2019-05-23T16:20:21.144Z,18.81
2019-05-23T16:22:49.524Z,18.99
2019-05-23T16:25:18.011Z,19.13
2019-05-23T16:27:46.409Z,19.26
2019-05-23T16:30:15.127Z,19.31
2019-05-23T16:32:46.563Z,19.29
2019-05-23T16:35:13.632Z,19.18
2019-05-23T16:37:42.086Z,19.16
2019-05-23T16:40:10.638Z,18.99
2019-05-23T16:42:39.112Z,19.11
2019-05-23T16:45:08.052Z,19.07
2019-05-23T16:47:36.772Z,19.13
2019-05-23T16:50:08.127Z,19.14
2019-05-23T16:52:36.880Z,19.04
2019-05-23T16:55:07.832Z,19.04
2019-05-23T16:57:37.933Z,18.93
2019-05-23T17:00:16.811Z,19.00
2019-05-23T17:02:46.908Z,19.06
2019-05-23T17:05:33.512Z,19.07
2019-05-23T17:08:12.299Z,19.14
2019-05-23T17:10:42.482Z,19.10
2019-05-23T17:13:12.513Z,18.92
2019-05-23T17:15:42.536Z,18.79
2019-05-23T17:18:21.646Z,18.62
2019-05-23T17:20:54.086Z,18.57
2019-05-23T17:23:40.349Z,18.52
2019-05-23T17:26:26.074Z,18.37
2019-05-23T17:28:58.695Z,18.34
2019-05-23T17:31:37.515Z,18.34
2019-05-23T17:34:06.483Z,18.33
2019-05-23T17:36:35.859Z,18.26
2019-05-23T17:39:07.474Z,18.21
2019-05-23T17:41:36.895Z,18.19
2019-05-23T17:44:05.850Z,18.17
2019-05-23T17:46:34.326Z,18.19
2019-05-23T17:49:02.747Z,18.22
2019-05-23T17:51:31.626Z,18.21
2019-05-23T17:54:00.126Z,18.19
2019-05-23T17:56:28.503Z,18.18
2019-05-23T17:58:57.451Z,18.06
2019-05-23T18:01:26.370Z,18.09
2019-05-23T18:03:55.003Z,18.10
2019-05-23T18:06:23.512Z,18.10
2019-05-23T18:08:52.585Z,18.11
2019-05-23T18:11:21.012Z,18.12
2019-05-23T18:13:49.671Z,18.10
2019-05-23T18:16:19.411Z,18.04
2019-05-23T18:18:48.051Z,17.90
2019-05-23T18:21:17.212Z,17.90
2019-05-23T18:23:45.790Z,17.80
2019-05-23T18:26:14.516Z,17.69
2019-05-23T18:28:43.495Z,17.58
2019-05-23T18:31:16.244Z,17.51
2019-05-23T18:33:44.678Z,17.37
2019-05-23T18:36:14.257Z,17.37
2019-05-23T18:38:42.700Z,17.35
2019-05-23T18:41:11.527Z,17.27
2019-05-23T18:43:40.004Z,17.19
2019-05-23T18:46:19.291Z,17.10
2019-05-23T18:48:56.396Z,17.04
2019-05-23T18:51:25.013Z,17.00
2019-05-23T18:53:53.391Z,16.94
2019-05-23T18:56:21.834Z,16.84
2019-05-23T18:58:50.452Z,16.77
2019-05-23T19:01:20.007Z,16.68
2019-05-23T19:03:48.461Z,16.58
2019-05-23T19:06:16.861Z,16.48
2019-05-23T19:08:45.354Z,16.42
2019-05-23T19:11:20.660Z,16.35
2019-05-23T19:13:44.374Z,16.25
2019-05-23T19:16:12.808Z,16.19
2019-05-23T19:18:41.644Z,16.14
2019-05-23T19:21:11.455Z,16.07
2019-05-23T19:23:39.932Z,16.02
2019-05-23T19:26:08.755Z,15.95
2019-05-23T19:28:37.241Z,15.88
2019-05-23T19:31:06.220Z,15.82
2019-05-23T19:33:35.613Z,15.74
2019-05-23T19:36:05.222Z,15.68
2019-05-23T19:38:33.608Z,15.61
2019-05-23T19:41:02.320Z,15.55
2019-05-23T19:43:30.842Z,15.52
2019-05-23T19:45:59.323Z,15.45
2019-05-23T19:48:28.116Z,15.39
2019-05-23T19:50:57.074Z,15.38
2019-05-23T19:53:25.705Z,15.34
2019-05-23T19:55:59.536Z,15.31
2019-05-23T19:58:28.294Z,15.12
2019-05-23T20:00:57.222Z,15.23
2019-05-23T20:03:25.873Z,15.15
2019-05-23T20:05:55.757Z,15.09
2019-05-23T20:08:24.408Z,15.01
2019-05-23T20:10:53.066Z,14.96
2019-05-23T20:13:22.896Z,14.97
2019-05-23T20:15:51.552Z,14.94
2019-05-23T20:18:19.965Z,14.93
2019-05-23T20:20:48.679Z,14.88
2019-05-23T20:23:17.706Z,14.81
2019-05-23T20:25:46.334Z,14.74
2019-05-23T20:28:16.090Z,14.70
2019-05-23T20:30:48.311Z,14.66
2019-05-23T20:33:16.713Z,14.61
2019-05-23T20:35:45.201Z,14.58
2019-05-23T20:38:13.697Z,14.54
2019-05-23T20:40:42.238Z,14.50
2019-05-23T20:43:10.689Z,14.40
2019-05-23T20:45:39.514Z,14.31
2019-05-23T20:48:08.265Z,14.25
2019-05-23T20:50:37.005Z,14.22
2019-05-23T20:53:05.766Z,14.21
2019-05-23T20:55:34.713Z,14.20
2019-05-23T20:58:03.959Z,14.14
2019-05-23T21:00:33.985Z,14.07
2019-05-23T21:03:03.148Z,13.99
2019-05-23T21:05:31.918Z,13.92
2019-05-23T21:08:00.369Z,13.86
2019-05-23T21:10:43.901Z,13.82
2019-05-23T21:13:12.415Z,13.79
2019-05-23T21:15:41.155Z,13.72
2019-05-23T21:18:10.928Z,13.66
2019-05-23T21:20:39.424Z,13.61
2019-05-23T21:23:08.110Z,13.52
2019-05-23T21:25:38.183Z,13.48
2019-05-23T21:28:06.564Z,13.45
2019-05-23T21:30:35.083Z,13.40
2019-05-23T21:33:03.750Z,13.41
2019-05-23T21:35:32.391Z,13.40
2019-05-23T21:38:00.847Z,13.38
2019-05-23T21:40:38.147Z,13.35
2019-05-23T21:43:06.626Z,13.25
2019-05-23T21:45:35.165Z,13.13
2019-05-23T21:48:03.805Z,13.03
2019-05-23T21:50:32.504Z,13.00
2019-05-23T21:53:00.881Z,12.94
2019-05-23T21:55:37.073Z,12.90
2019-05-23T21:58:06.289Z,12.86
2019-05-23T22:01:06.298Z,12.80
2019-05-23T22:03:52.766Z,12.72
2019-05-23T22:06:27.487Z,12.67
2019-05-23T22:08:56.247Z,12.65
2019-05-23T22:11:24.941Z,12.63
2019-05-23T22:13:53.348Z,12.62
2019-05-23T22:16:21.763Z,12.61
2019-05-23T22:18:50.144Z,12.60
2019-05-23T22:21:18.598Z,12.60
2019-05-23T22:23:47.070Z,12.60
2019-05-23T22:26:15.465Z,12.59
2019-05-23T22:28:44.215Z,12.57
2019-05-23T22:31:12.890Z,12.50
2019-05-23T22:33:42.921Z,12.46
2019-05-23T22:36:11.893Z,12.49
2019-05-23T22:38:40.272Z,12.43
2019-05-23T22:41:08.691Z,12.39
2019-05-23T22:43:37.099Z,12.30
2019-05-23T22:46:05.556Z,12.16
2019-05-23T22:48:34.029Z,12.03
2019-05-23T22:51:02.435Z,11.92
2019-05-23T22:53:30.871Z,11.88
2019-05-23T22:55:59.270Z,11.85
2019-05-23T22:58:27.719Z,11.76
2019-05-23T23:00:56.158Z,11.76
2019-05-23T23:03:24.642Z,11.74
2019-05-23T23:05:53.102Z,11.73
2019-05-23T23:08:21.938Z,11.70
2019-05-23T23:10:50.440Z,11.59
2019-05-23T23:13:18.844Z,11.63
2019-05-23T23:15:47.253Z,11.59
2019-05-23T23:18:15.744Z,11.54
2019-05-23T23:20:45.811Z,11.51
2019-05-23T23:23:14.285Z,11.50
2019-05-23T23:25:42.787Z,11.48
2019-05-23T23:28:11.216Z,11.45
2019-05-23T23:30:43.945Z,11.44
2019-05-23T23:33:12.437Z,11.45
2019-05-23T23:35:40.836Z,11.38
2019-05-23T23:38:09.718Z,11.33
2019-05-23T23:40:38.250Z,11.26
2019-05-23T23:43:06.677Z,11.22
2019-05-23T23:45:52.996Z,11.18
2019-05-23T23:48:39.166Z,11.16
2019-05-23T23:51:25.363Z,11.13
2019-05-23T23:54:11.208Z,11.10
2019-05-23T23:56:57.714Z,11.06
2019-05-23T23:59:25.419Z,11.04
